createdAt,value
2023-03-22T00:00:17.921Z,23.00
2023-03-22T00:02:45.211Z,22.58
2023-03-22T00:05:12.593Z,22.55
2023-03-22T00:07:41.290Z,24.98
2023-03-22T00:10:08.759Z,23.30
2023-03-22T00:12:35.900Z,22.70
2023-03-22T00:15:03.372Z,24.83
2023-03-22T00:17:31.232Z,23.30
2023-03-22T00:19:58.636Z,23.83
2023-03-22T00:22:26.601Z,24.20
2023-03-22T00:24:53.860Z,24.58
2023-03-22T00:27:21.267Z,24.05
2023-03-22T00:29:48.806Z,21.48
2023-03-22T00:32:16.648Z,20.83
2023-03-22T00:34:44.208Z,19.88
2023-03-22T00:37:11.681Z,19.77
2023-03-22T00:39:38.981Z,18.55
2023-03-22T00:42:07.015Z,17.02
2023-03-22T00:44:34.690Z,17.85
2023-03-22T00:47:02.641Z,18.77
2023-03-22T00:49:31.034Z,17.50
2023-03-22T00:51:58.263Z,20.58
2023-03-22T00:54:25.766Z,20.08
2023-03-22T00:56:52.945Z,19.48
2023-03-22T00:59:20.321Z,19.58
2023-03-22T01:01:48.186Z,20.23
2023-03-22T01:04:18.365Z,21.20
2023-03-22T01:06:47.408Z,20.52
2023-03-22T01:09:15.445Z,20.70
2023-03-22T01:11:43.952Z,20.15
2023-03-22T01:14:14.192Z,19.92
2023-03-22T01:16:41.303Z,20.60
2023-03-22T01:19:09.149Z,21.95
2023-03-22T01:21:36.740Z,22.38
2023-03-22T01:24:04.297Z,22.70
2023-03-22T01:26:31.667Z,21.87
2023-03-22T01:28:59.797Z,21.13
2023-03-22T01:31:27.590Z,19.15
2023-03-22T01:33:54.773Z,18.13
2023-03-22T01:36:23.357Z,18.27
2023-03-22T01:38:50.911Z,17.17
2023-03-22T01:41:20.376Z,18.70
2023-03-22T01:44:06.833Z,16.85
2023-03-22T01:46:34.082Z,17.55
2023-03-22T01:49:03.078Z,18.23
2023-03-22T01:51:30.593Z,18.37
2023-03-22T01:54:25.146Z,16.85
2023-03-22T01:56:52.479Z,13.75
2023-03-22T01:59:30.037Z,13.73
2023-03-22T02:02:33.339Z,12.80
2023-03-22T02:05:13.235Z,11.82
2023-03-22T02:07:44.712Z,11.75
2023-03-22T02:10:14.803Z,10.13
2023-03-22T02:13:01.367Z,10.40
2023-03-22T02:15:52.368Z,9.88
2023-03-22T02:18:38.978Z,11.48
2023-03-22T02:21:15.801Z,12.20
2023-03-22T02:24:02.061Z,12.25
2023-03-22T02:26:32.003Z,10.82
2023-03-22T02:29:23.261Z,9.98
2023-03-22T02:31:58.447Z,11.27
2023-03-22T02:34:32.988Z,10.55
2023-03-22T02:37:00.811Z,11.25
2023-03-22T02:39:46.724Z,11.25
2023-03-22T02:42:25.911Z,10.55
2023-03-22T02:44:53.007Z,10.97
2023-03-22T02:47:25.212Z,11.10
2023-03-22T02:50:05.129Z,11.82
2023-03-22T02:52:40.734Z,11.75
2023-03-22T02:55:26.446Z,11.20
2023-03-22T02:57:53.606Z,10.70
2023-03-22T03:00:21.340Z,11.10
2023-03-22T03:02:54.962Z,11.27
2023-03-22T03:05:23.285Z,11.18
2023-03-22T03:07:52.778Z,10.95
2023-03-22T03:10:22.435Z,9.95
2023-03-22T03:12:49.724Z,9.27
2023-03-22T03:15:19.200Z,9.32
2023-03-22T03:17:57.690Z,9.02
2023-03-22T03:20:30.556Z,8.88
2023-03-22T03:23:16.378Z,10.52
2023-03-22T03:25:44.487Z,10.93
2023-03-22T03:28:30.347Z,10.93
2023-03-22T03:31:01.838Z,10.95
2023-03-22T03:33:29.863Z,11.68
2023-03-22T03:36:05.222Z,11.15
2023-03-22T03:38:34.598Z,12.27
2023-03-22T03:41:04.118Z,10.95
2023-03-22T03:43:31.940Z,10.65
2023-03-22T03:46:00.807Z,10.90
2023-03-22T03:48:30.448Z,9.65
2023-03-22T03:50:58.442Z,9.48
2023-03-22T03:53:25.873Z,10.15
2023-03-22T03:55:53.091Z,10.18
2023-03-22T03:58:20.337Z,10.57
2023-03-22T04:00:51.278Z,11.67
2023-03-22T04:03:50.921Z,11.05
2023-03-22T04:06:40.628Z,10.77
2023-03-22T04:09:18.289Z,11.57
2023-03-22T04:11:50.676Z,11.57
2023-03-22T04:14:20.134Z,10.20
2023-03-22T04:16:49.955Z,11.15
2023-03-22T04:19:21.473Z,8.80
2023-03-22T04:21:51.510Z,7.80
2023-03-22T04:24:18.968Z,7.57
2023-03-22T04:26:51.822Z,7.60
2023-03-22T04:29:32.506Z,6.75
2023-03-22T04:32:17.812Z,5.78
2023-03-22T04:34:46.926Z,7.30
2023-03-22T04:37:19.477Z,7.40
2023-03-22T04:40:08.733Z,7.10
2023-03-22T04:43:12.156Z,6.72
2023-03-22T04:46:01.999Z,6.25
2023-03-22T04:48:41.042Z,6.28
2023-03-22T04:51:11.762Z,7.50
2023-03-22T04:53:48.289Z,7.27
2023-03-22T04:56:16.278Z,7.07
2023-03-22T04:58:45.806Z,7.85
2023-03-22T05:01:14.655Z,8.15
2023-03-22T05:03:46.183Z,8.02
2023-03-22T05:06:15.915Z,7.60
2023-03-22T05:09:00.378Z,7.40
2023-03-22T05:11:28.592Z,7.38
2023-03-22T05:14:12.535Z,8.23
2023-03-22T05:16:41.073Z,8.48
2023-03-22T05:19:14.556Z,8.20
2023-03-22T05:21:46.322Z,8.75
2023-03-22T05:24:13.584Z,7.93
2023-03-22T05:26:43.440Z,7.63
2023-03-22T05:29:13.620Z,7.65
2023-03-22T05:32:00.992Z,7.13
2023-03-22T05:34:35.869Z,7.00
2023-03-22T05:37:15.380Z,7.35
2023-03-22T05:39:50.452Z,7.20
2023-03-22T05:42:18.008Z,6.95
2023-03-22T05:44:48.497Z,6.80
2023-03-22T05:47:17.871Z,7.45
2023-03-22T05:50:11.566Z,8.80
2023-03-22T05:52:39.325Z,7.45
2023-03-22T05:55:26.746Z,7.32
2023-03-22T05:58:02.265Z,6.90
2023-03-22T06:00:33.824Z,7.13
2023-03-22T06:03:33.425Z,6.57
2023-03-22T06:06:11.013Z,7.35
2023-03-22T06:08:48.056Z,7.10
2023-03-22T06:11:19.662Z,6.73
2023-03-22T06:13:51.459Z,7.15
2023-03-22T06:16:20.692Z,7.60
2023-03-22T06:18:51.000Z,7.95
2023-03-22T06:21:18.545Z,9.77
2023-03-22T06:23:45.925Z,11.47
2023-03-22T06:26:14.718Z,9.00
2023-03-22T06:28:51.331Z,8.45
2023-03-22T06:31:19.923Z,6.88
2023-03-22T06:33:56.303Z,7.30
2023-03-22T06:36:41.281Z,6.30
2023-03-22T06:39:22.423Z,6.40
2023-03-22T06:41:51.299Z,6.35
2023-03-22T06:44:22.970Z,6.25
2023-03-22T06:46:53.294Z,6.93
2023-03-22T06:49:46.662Z,6.67
2023-03-22T06:52:22.488Z,7.57
2023-03-22T06:54:51.584Z,7.70
2023-03-22T06:57:19.821Z,9.85
2023-03-22T06:59:47.168Z,9.00
2023-03-22T07:02:14.471Z,8.27
2023-03-22T07:04:52.124Z,8.18
2023-03-22T07:07:19.480Z,8.75
2023-03-22T07:09:46.972Z,9.52
2023-03-22T07:12:14.207Z,9.13
2023-03-22T07:14:42.169Z,9.53
2023-03-22T07:17:35.732Z,10.27
2023-03-22T07:20:04.435Z,9.95
2023-03-22T07:22:31.898Z,10.30
2023-03-22T07:25:01.855Z,9.85
2023-03-22T07:27:31.954Z,10.10
2023-03-22T07:29:59.951Z,9.80
2023-03-22T07:32:27.825Z,8.75
2023-03-22T07:35:05.524Z,8.40
2023-03-22T07:37:32.713Z,7.70
2023-03-22T07:40:00.564Z,8.37
2023-03-22T07:42:31.654Z,8.40
2023-03-22T07:45:37.477Z,8.27
2023-03-22T07:48:37.398Z,8.65
2023-03-22T07:51:30.838Z,8.98
2023-03-22T07:53:58.472Z,8.23
2023-03-22T07:56:27.141Z,8.38
2023-03-22T07:58:56.019Z,8.65
2023-03-22T08:01:25.273Z,8.70
2023-03-22T08:04:05.000Z,8.38
2023-03-22T08:07:00.581Z,8.20
2023-03-22T08:09:29.289Z,7.93
2023-03-22T08:11:57.524Z,9.38
2023-03-22T08:14:35.680Z,7.65
2023-03-22T08:17:05.396Z,8.10
2023-03-22T08:19:36.610Z,7.78
2023-03-22T08:22:16.225Z,8.20
2023-03-22T08:25:15.963Z,7.32
2023-03-22T08:27:49.810Z,6.63
2023-03-22T08:30:24.619Z,6.63
2023-03-22T08:32:56.476Z,7.50
2023-03-22T08:35:24.882Z,7.40
2023-03-22T08:37:57.895Z,7.50
2023-03-22T08:40:33.130Z,7.32
2023-03-22T08:43:02.633Z,7.45
2023-03-22T08:45:31.339Z,7.22
2023-03-22T08:48:06.468Z,7.57
2023-03-22T08:50:47.765Z,6.75
2023-03-22T08:53:24.022Z,6.75
2023-03-22T08:56:04.084Z,7.15
2023-03-22T08:58:47.508Z,7.05
2023-03-22T09:01:50.433Z,7.13
2023-03-22T09:04:21.734Z,7.30
2023-03-22T09:06:51.829Z,7.07
2023-03-22T09:09:19.551Z,7.70
2023-03-22T09:11:51.762Z,6.70
2023-03-22T09:14:21.142Z,6.60
2023-03-22T09:16:49.047Z,6.90
2023-03-22T09:19:18.542Z,6.78
2023-03-22T09:21:45.912Z,6.75
2023-03-22T09:24:27.368Z,10.32
2023-03-22T09:26:59.279Z,6.45
2023-03-22T09:29:27.508Z,6.47
2023-03-22T09:31:57.353Z,5.80
2023-03-22T09:34:30.846Z,6.32
2023-03-22T09:37:02.701Z,5.95
2023-03-22T09:39:40.407Z,6.15
2023-03-22T09:42:18.446Z,6.27
2023-03-22T09:44:46.999Z,6.05
2023-03-22T09:47:25.640Z,5.75
2023-03-22T09:49:57.960Z,5.53
2023-03-22T09:52:29.522Z,6.10
2023-03-22T09:54:56.785Z,6.03
2023-03-22T09:57:33.440Z,5.60
2023-03-22T10:00:12.002Z,5.55
2023-03-22T10:02:51.834Z,5.03
2023-03-22T10:05:30.572Z,5.40
2023-03-22T10:08:07.215Z,5.20
2023-03-22T10:10:37.208Z,5.32
2023-03-22T10:13:06.773Z,5.72
2023-03-22T10:15:42.880Z,5.50
2023-03-22T10:18:31.618Z,5.93
2023-03-22T10:21:05.005Z,5.70
2023-03-22T10:23:38.605Z,5.68
2023-03-22T10:26:07.317Z,5.30
2023-03-22T10:28:42.297Z,5.70
2023-03-22T10:31:16.984Z,5.70
2023-03-22T10:34:04.067Z,5.73
2023-03-22T10:36:35.231Z,5.22
2023-03-22T10:39:14.667Z,4.55
2023-03-22T10:41:50.688Z,4.47
2023-03-22T10:44:19.672Z,4.50
2023-03-22T10:46:49.613Z,5.00
2023-03-22T10:49:23.735Z,4.82
2023-03-22T10:51:55.232Z,4.63
2023-03-22T10:54:26.272Z,4.78
2023-03-22T10:57:00.237Z,5.20
2023-03-22T10:59:50.185Z,5.27
2023-03-22T11:02:23.764Z,4.95
2023-03-22T11:04:55.770Z,5.00
2023-03-22T11:07:39.628Z,4.70
2023-03-22T11:10:10.354Z,4.85
2023-03-22T11:12:46.644Z,5.10
2023-03-22T11:15:42.121Z,4.97
2023-03-22T11:18:18.468Z,5.03
2023-03-22T11:20:57.466Z,5.25
2023-03-22T11:23:25.642Z,5.03
2023-03-22T11:25:56.528Z,5.27
2023-03-22T11:28:29.892Z,5.00
2023-03-22T11:31:08.794Z,4.95
2023-03-22T11:33:36.645Z,5.75
2023-03-22T11:36:18.268Z,5.60
2023-03-22T11:38:48.257Z,4.60
2023-03-22T11:41:20.129Z,5.18
2023-03-22T11:43:49.915Z,5.18
2023-03-22T11:46:19.535Z,4.53
2023-03-22T11:48:50.086Z,4.70
2023-03-22T11:51:28.655Z,4.20
2023-03-22T11:54:08.303Z,4.18
2023-03-22T11:56:40.654Z,4.55
2023-03-22T11:59:15.317Z,4.60
2023-03-22T12:01:57.099Z,5.00
2023-03-22T12:04:28.576Z,4.67
2023-03-22T12:07:00.194Z,4.53
2023-03-22T12:09:34.948Z,4.57
2023-03-22T12:12:05.557Z,4.40
2023-03-22T12:14:44.025Z,4.45
2023-03-22T12:17:21.642Z,4.70
2023-03-22T12:19:58.122Z,4.57
2023-03-22T12:22:29.134Z,5.10
2023-03-22T12:25:00.906Z,4.82
2023-03-22T12:27:31.758Z,4.85
2023-03-22T12:30:01.738Z,4.30
2023-03-22T12:32:30.897Z,4.00
2023-03-22T12:35:16.111Z,4.13
2023-03-22T12:37:50.543Z,3.53
2023-03-22T12:40:17.646Z,3.42
2023-03-22T12:43:11.208Z,4.20
2023-03-22T12:45:40.911Z,3.50
2023-03-22T12:48:17.608Z,4.97
2023-03-22T12:50:58.997Z,4.78
2023-03-22T12:53:28.963Z,4.15
2023-03-22T12:55:57.657Z,3.80
2023-03-22T12:58:26.268Z,4.40
2023-03-22T13:01:01.474Z,4.20
2023-03-22T13:03:36.909Z,4.30
2023-03-22T13:06:06.247Z,4.30
2023-03-22T13:08:52.608Z,3.80
2023-03-22T13:11:23.782Z,4.50
2023-03-22T13:13:53.670Z,4.28
2023-03-22T13:16:23.157Z,4.05
2023-03-22T13:18:50.906Z,4.30
2023-03-22T13:21:19.647Z,4.03
2023-03-22T13:23:57.831Z,3.95
2023-03-22T13:27:06.716Z,4.53
2023-03-22T13:29:38.372Z,4.47
2023-03-22T13:32:07.529Z,4.80
2023-03-22T13:34:39.727Z,5.03
2023-03-22T13:37:11.271Z,5.30
2023-03-22T13:39:41.651Z,5.32
2023-03-22T13:42:35.115Z,6.03
2023-03-22T13:45:04.243Z,6.28
2023-03-22T13:47:32.829Z,7.33
2023-03-22T13:50:07.373Z,8.27
2023-03-22T13:52:39.129Z,8.90
2023-03-22T13:55:18.655Z,8.80
2023-03-22T13:57:46.054Z,8.52
2023-03-22T14:00:33.709Z,8.00
2023-03-22T14:03:10.411Z,8.32
2023-03-22T14:05:43.268Z,8.15
2023-03-22T14:08:18.851Z,8.13
2023-03-22T14:11:15.195Z,7.97
2023-03-22T14:13:44.701Z,7.70
2023-03-22T14:16:24.851Z,7.85
2023-03-22T14:18:51.976Z,7.50
2023-03-22T14:21:22.030Z,7.55
